MSA1018 LIPY-LIMC
Flight info
| Callsign | MSA1018 |
|---|---|
| Flight time | 1h 2m |
| Altitude | 350000 |
| Route | BIDMA M730 ASDOR/N0455F340 DCT SUKOM DCT VABOK DCT ADOSA/N0455F330 DCT IDREK DCT ELTAR DCT NOBMI DCT NEVNI DCT OSKOR DCT LEGLO DCT PEXUG |
| Aircraft | B738/M-SDE2E3FGHIRWXY/LB1 |
Departure
| Time | 2026-05-04 21:48 |
|---|---|
| Airport | Marche Airport (LIPY) |
Arrival
| Time | 2026-05-04 22:51 |
|---|---|
| Airport | Milan Malpensa International Airport (LIMC) |
| Time | Latitude | Longitude | Altitude | Speed | Heading |
|---|---|---|---|---|---|
| 2026-05-04 21:15 | 43.60855 | 13.35606 | 58 ft | 0 kts | 135° |
| 2026-05-04 21:27 | 43.60862 | 13.35595 | 50 ft | 4 kts | 135° |
| 2026-05-04 21:27 | 43.60880 | 13.35571 | 56 ft | 4 kts | 133° |
| 2026-05-04 21:27 | 43.60891 | 13.35544 | 52 ft | 4 kts | 79° |
| 2026-05-04 21:28 | 43.60878 | 13.35516 | 54 ft | 3 kts | 44° |
| 2026-05-04 21:28 | 43.60873 | 13.35509 | 51 ft | 0 kts | 44° |
| 2026-05-04 21:35 | 43.60886 | 13.35526 | 56 ft | 6 kts | 44° |
| 2026-05-04 21:35 | 43.60903 | 13.35549 | 57 ft | 0 kts | 44° |
| 2026-05-04 21:35 | 43.60904 | 13.35549 | 57 ft | 0 kts | 44° |
| 2026-05-04 21:37 | 43.60915 | 13.35566 | 52 ft | 6 kts | 47° |
| 2026-05-04 21:37 | 43.60966 | 13.35638 | 53 ft | 15 kts | 44° |
| 2026-05-04 21:37 | 43.61064 | 13.35771 | 52 ft | 23 kts | 45° |
| 2026-05-04 21:38 | 43.61185 | 13.35939 | 51 ft | 26 kts | 44° |
| 2026-05-04 21:38 | 43.61286 | 13.36076 | 50 ft | 14 kts | 45° |
| 2026-05-04 21:38 | 43.61339 | 13.36102 | 50 ft | 6 kts | 343° |
| 2026-05-04 21:38 | 43.61350 | 13.36095 | 49 ft | 0 kts | 330° |
| 2026-05-04 21:43 | 43.61359 | 13.36087 | 49 ft | 4 kts | 323° |
| 2026-05-04 21:43 | 43.61401 | 13.36028 | 48 ft | 13 kts | 314° |
| 2026-05-04 21:44 | 43.61479 | 13.36022 | 45 ft | 13 kts | 38° |
| 2026-05-04 21:44 | 43.61546 | 13.36104 | 48 ft | 13 kts | 44° |
| 2026-05-04 21:44 | 43.61613 | 13.36196 | 49 ft | 16 kts | 45° |
| 2026-05-04 21:44 | 43.61709 | 13.36328 | 48 ft | 22 kts | 45° |
| 2026-05-04 21:45 | 43.61834 | 13.36503 | 45 ft | 29 kts | 45° |
| 2026-05-04 21:45 | 43.61990 | 13.36723 | 40 ft | 35 kts | 45° |
| 2026-05-04 21:45 | 43.62168 | 13.36960 | 40 ft | 34 kts | 44° |
| 2026-05-04 21:45 | 43.62309 | 13.37153 | 42 ft | 26 kts | 45° |
| 2026-05-04 21:46 | 43.62423 | 13.37317 | 40 ft | 19 kts | 49° |
| 2026-05-04 21:46 | 43.62494 | 13.37442 | 38 ft | 13 kts | 56° |
| 2026-05-04 21:46 | 43.62531 | 13.37495 | 36 ft | 1 kts | 342° |
| 2026-05-04 21:46 | 43.62531 | 13.37481 | 36 ft | 3 kts | 268° |
| 2026-05-04 21:47 | 43.62521 | 13.37447 | 37 ft | 4 kts | 237° |
| 2026-05-04 21:47 | 43.62515 | 13.37437 | 38 ft | 0 kts | 230° |
| 2026-05-04 21:47 | 43.62475 | 13.37379 | 40 ft | 40 kts | 224° |
| 2026-05-04 21:48 | 43.62029 | 13.36773 | 38 ft | 137 kts | 224° |
| 2026-05-04 21:48 | 43.61230 | 13.35657 | 561 ft | 180 kts | 226° |
| 2026-05-04 21:48 | 43.60326 | 13.34319 | 1583 ft | 199 kts | 228° |
| 2026-05-04 21:48 | 43.59703 | 13.33373 | 2265 ft | 204 kts | 228° |
| 2026-05-04 21:49 | 43.58686 | 13.31870 | 2964 ft | 223 kts | 226° |
| 2026-05-04 21:49 | 43.57229 | 13.29796 | 3909 ft | 233 kts | 224° |
| 2026-05-04 21:49 | 43.56055 | 13.28147 | 4540 ft | 244 kts | 223° |
| 2026-05-04 21:49 | 43.54881 | 13.26514 | 5599 ft | 235 kts | 222° |
| 2026-05-04 21:50 | 43.54125 | 13.25437 | 6161 ft | 237 kts | 224° |
| 2026-05-04 21:50 | 43.53008 | 13.23858 | 7222 ft | 224 kts | 223° |
| 2026-05-04 21:50 | 43.51923 | 13.22342 | 8080 ft | 222 kts | 225° |
| 2026-05-04 21:50 | 43.51149 | 13.20486 | 8821 ft | 229 kts | 256° |
| 2026-05-04 21:51 | 43.51218 | 13.18287 | 9607 ft | 236 kts | 284° |
| 2026-05-04 21:51 | 43.52082 | 13.16343 | 10350 ft | 246 kts | 314° |
| 2026-05-04 21:51 | 43.53570 | 13.15136 | 11032 ft | 254 kts | 338° |
| 2026-05-04 21:51 | 43.55286 | 13.14506 | 11758 ft | 257 kts | 344° |
| 2026-05-04 21:52 | 43.57040 | 13.13974 | 12510 ft | 258 kts | 344° |
| 2026-05-04 21:52 | 43.58795 | 13.13433 | 13291 ft | 259 kts | 343° |
| 2026-05-04 21:52 | 43.60560 | 13.12846 | 14065 ft | 260 kts | 338° |
| 2026-05-04 21:52 | 43.62111 | 13.11620 | 14550 ft | 266 kts | 319° |
| 2026-05-04 21:53 | 43.63634 | 13.09953 | 14731 ft | 292 kts | 319° |
| 2026-05-04 21:53 | 43.65267 | 13.08102 | 14908 ft | 315 kts | 312° |
| 2026-05-04 21:53 | 43.66515 | 13.05529 | 15071 ft | 334 kts | 289° |
| 2026-05-04 21:53 | 43.67179 | 13.02359 | 15285 ft | 353 kts | 282° |
| 2026-05-04 21:54 | 43.67763 | 12.99019 | 15781 ft | 362 kts | 282° |
| 2026-05-04 21:54 | 43.68357 | 12.95603 | 16487 ft | 366 kts | 282° |
| 2026-05-04 21:54 | 43.68974 | 12.92175 | 17220 ft | 369 kts | 283° |
| 2026-05-04 21:54 | 43.69607 | 12.88712 | 17882 ft | 375 kts | 283° |
| 2026-05-04 21:55 | 43.70255 | 12.85191 | 18535 ft | 379 kts | 283° |
| 2026-05-04 21:55 | 43.70906 | 12.81649 | 19151 ft | 382 kts | 283° |
| 2026-05-04 21:55 | 43.71560 | 12.78090 | 19822 ft | 383 kts | 283° |
| 2026-05-04 21:55 | 43.72218 | 12.74498 | 20434 ft | 386 kts | 283° |
| 2026-05-04 21:56 | 43.72871 | 12.70928 | 20997 ft | 390 kts | 283° |
| 2026-05-04 21:56 | 43.73535 | 12.67286 | 21590 ft | 393 kts | 282° |
| 2026-05-04 21:56 | 43.74205 | 12.63602 | 22158 ft | 395 kts | 282° |
| 2026-05-04 21:56 | 43.74877 | 12.59899 | 22738 ft | 398 kts | 282° |
| 2026-05-04 21:57 | 43.75553 | 12.56169 | 23285 ft | 401 kts | 282° |
| 2026-05-04 21:57 | 43.76236 | 12.52397 | 23801 ft | 404 kts | 282° |
| 2026-05-04 21:57 | 43.76919 | 12.48613 | 24263 ft | 407 kts | 282° |
| 2026-05-04 21:57 | 43.77632 | 12.44818 | 24747 ft | 409 kts | 286° |
| 2026-05-04 21:58 | 43.78854 | 12.41249 | 25225 ft | 414 kts | 300° |
| 2026-05-04 21:58 | 43.80618 | 12.38136 | 25711 ft | 419 kts | 312° |
| 2026-05-04 21:58 | 43.82885 | 12.35556 | 26149 ft | 425 kts | 322° |
| 2026-05-04 21:58 | 43.85333 | 12.33254 | 26582 ft | 427 kts | 323° |
| 2026-05-04 21:59 | 43.87833 | 12.30980 | 26979 ft | 430 kts | 323° |
| 2026-05-04 21:59 | 43.90355 | 12.28693 | 27387 ft | 432 kts | 323° |
| 2026-05-04 21:59 | 43.92867 | 12.26394 | 27828 ft | 434 kts | 323° |
| 2026-05-04 21:59 | 43.95385 | 12.24064 | 28237 ft | 435 kts | 323° |
| 2026-05-04 22:00 | 43.97886 | 12.21727 | 28748 ft | 434 kts | 322° |
| 2026-05-04 22:00 | 44.00385 | 12.19379 | 29408 ft | 430 kts | 322° |
| 2026-05-04 22:00 | 44.02817 | 12.17086 | 30003 ft | 427 kts | 322° |
| 2026-05-04 22:01 | 44.07690 | 12.12473 | 30080 ft | 428 kts | 322° |
| 2026-05-04 22:01 | 44.12610 | 12.07806 | 30084 ft | 427 kts | 322° |
| 2026-05-04 22:02 | 44.17517 | 12.03143 | 30081 ft | 427 kts | 322° |
| 2026-05-04 22:02 | 44.22425 | 11.98470 | 30079 ft | 427 kts | 322° |
| 2026-05-04 22:03 | 44.27301 | 11.93820 | 30082 ft | 427 kts | 322° |
| 2026-05-04 22:03 | 44.32216 | 11.89122 | 30085 ft | 427 kts | 322° |
| 2026-05-04 22:04 | 44.37129 | 11.84417 | 30084 ft | 427 kts | 322° |
| 2026-05-04 22:04 | 44.41999 | 11.79742 | 30099 ft | 427 kts | 322° |
| 2026-05-04 22:05 | 44.46911 | 11.75018 | 30100 ft | 427 kts | 322° |
| 2026-05-04 22:05 | 44.51809 | 11.70298 | 30086 ft | 427 kts | 322° |
| 2026-05-04 22:06 | 44.56910 | 11.65985 | 30066 ft | 433 kts | 333° |
| 2026-05-04 22:06 | 44.62568 | 11.63014 | 30079 ft | 434 kts | 336° |
| 2026-05-04 22:07 | 44.68202 | 11.60159 | 30081 ft | 433 kts | 336° |
| 2026-05-04 22:07 | 44.73859 | 11.57237 | 30086 ft | 432 kts | 335° |
| 2026-05-04 22:08 | 44.79496 | 11.54284 | 30093 ft | 431 kts | 335° |
| 2026-05-04 22:08 | 44.85120 | 11.51321 | 30098 ft | 431 kts | 335° |
| 2026-05-04 22:09 | 44.90708 | 11.48371 | 30098 ft | 431 kts | 335° |
| 2026-05-04 22:09 | 44.96329 | 11.45398 | 30095 ft | 431 kts | 335° |
| 2026-05-04 22:10 | 45.01953 | 11.42419 | 30093 ft | 432 kts | 335° |
| 2026-05-04 22:10 | 45.07581 | 11.39431 | 30089 ft | 433 kts | 335° |
| 2026-05-04 22:11 | 45.13221 | 11.36429 | 30077 ft | 434 kts | 335° |
| 2026-05-04 22:11 | 45.18883 | 11.33410 | 30078 ft | 435 kts | 335° |
| 2026-05-04 22:12 | 45.24516 | 11.30401 | 30075 ft | 436 kts | 335° |
| 2026-05-04 22:12 | 45.30178 | 11.27293 | 30073 ft | 435 kts | 331° |
| 2026-05-04 22:13 | 45.35607 | 11.23493 | 30074 ft | 434 kts | 328° |
| 2026-05-04 22:13 | 45.40983 | 11.19545 | 30059 ft | 436 kts | 329° |
| 2026-05-04 22:14 | 45.46398 | 11.15628 | 30055 ft | 437 kts | 329° |
| 2026-05-04 22:14 | 45.51841 | 11.11720 | 30059 ft | 438 kts | 329° |
| 2026-05-04 22:15 | 45.57290 | 11.07803 | 30048 ft | 438 kts | 329° |
| 2026-05-04 22:15 | 45.62182 | 11.02949 | 30080 ft | 427 kts | 305° |
| 2026-05-04 22:15 | 45.63693 | 10.99342 | 30069 ft | 421 kts | 290° |
| 2026-05-04 22:16 | 45.64517 | 10.95357 | 30058 ft | 417 kts | 276° |
| 2026-05-04 22:16 | 45.64632 | 10.87119 | 30071 ft | 415 kts | 268° |
| 2026-05-04 22:17 | 45.64627 | 10.78856 | 30072 ft | 415 kts | 269° |
| 2026-05-04 22:17 | 45.64694 | 10.70598 | 30062 ft | 413 kts | 269° |
| 2026-05-04 22:17 | 45.64726 | 10.66595 | 30057 ft | 402 kts | 269° |
| 2026-05-04 22:18 | 45.64754 | 10.62657 | 30055 ft | 388 kts | 269° |
| 2026-05-04 22:18 | 45.64774 | 10.58873 | 30045 ft | 375 kts | 269° |
| 2026-05-04 22:18 | 45.64789 | 10.55117 | 29920 ft | 380 kts | 268° |
| 2026-05-04 22:18 | 45.64804 | 10.51347 | 29398 ft | 379 kts | 268° |
| 2026-05-04 22:19 | 45.64817 | 10.47567 | 28686 ft | 381 kts | 268° |
| 2026-05-04 22:19 | 45.64829 | 10.43768 | 27997 ft | 383 kts | 268° |
| 2026-05-04 22:19 | 45.64841 | 10.39963 | 27399 ft | 382 kts | 268° |
| 2026-05-04 22:19 | 45.64854 | 10.36185 | 26839 ft | 379 kts | 268° |
| 2026-05-04 22:20 | 45.64868 | 10.32397 | 26073 ft | 384 kts | 268° |
| 2026-05-04 22:20 | 45.64879 | 10.28560 | 25455 ft | 385 kts | 268° |
| 2026-05-04 22:20 | 45.64890 | 10.24790 | 24975 ft | 383 kts | 268° |
| 2026-05-04 22:20 | 45.64900 | 10.21007 | 24510 ft | 380 kts | 268° |
| 2026-05-04 22:21 | 45.64908 | 10.17233 | 24031 ft | 378 kts | 268° |
| 2026-05-04 22:21 | 45.64915 | 10.13434 | 23524 ft | 377 kts | 268° |
| 2026-05-04 22:21 | 45.64922 | 10.09667 | 22792 ft | 380 kts | 268° |
| 2026-05-04 22:21 | 45.64937 | 10.05944 | 22587 ft | 369 kts | 268° |
| 2026-05-04 22:22 | 45.64954 | 10.02367 | 22236 ft | 363 kts | 268° |
| 2026-05-04 22:22 | 45.64969 | 9.98765 | 21729 ft | 361 kts | 268° |
| 2026-05-04 22:22 | 45.64982 | 9.95176 | 21235 ft | 360 kts | 268° |
| 2026-05-04 22:22 | 45.64993 | 9.91616 | 20761 ft | 358 kts | 268° |
| 2026-05-04 22:23 | 45.65003 | 9.88052 | 20315 ft | 356 kts | 268° |
| 2026-05-04 22:23 | 45.65013 | 9.84521 | 19877 ft | 354 kts | 268° |
| 2026-05-04 22:23 | 45.65021 | 9.81005 | 19439 ft | 352 kts | 268° |
| 2026-05-04 22:23 | 45.65027 | 9.77518 | 19012 ft | 350 kts | 268° |
| 2026-05-04 22:24 | 45.65068 | 9.74046 | 18603 ft | 348 kts | 270° |
| 2026-05-04 22:24 | 45.65152 | 9.70605 | 18163 ft | 346 kts | 270° |
| 2026-05-04 22:24 | 45.65237 | 9.67165 | 17707 ft | 344 kts | 270° |
| 2026-05-04 22:24 | 45.65315 | 9.63755 | 17256 ft | 341 kts | 270° |
| 2026-05-04 22:25 | 45.65362 | 9.60420 | 16825 ft | 339 kts | 268° |
| 2026-05-04 22:25 | 45.65365 | 9.57056 | 16384 ft | 337 kts | 268° |
| 2026-05-04 22:25 | 45.65357 | 9.53721 | 16054 ft | 335 kts | 268° |
| 2026-05-04 22:25 | 45.65349 | 9.50412 | 15637 ft | 333 kts | 267° |
| 2026-05-04 22:26 | 45.65344 | 9.47107 | 15211 ft | 331 kts | 267° |
| 2026-05-04 22:26 | 45.65341 | 9.43800 | 14610 ft | 336 kts | 267° |
| 2026-05-04 22:26 | 45.65340 | 9.40496 | 14419 ft | 326 kts | 267° |
| 2026-05-04 22:26 | 45.65338 | 9.37325 | 14339 ft | 313 kts | 267° |
| 2026-05-04 22:27 | 45.65337 | 9.34256 | 14041 ft | 309 kts | 267° |
| 2026-05-04 22:27 | 45.65348 | 9.31183 | 13652 ft | 307 kts | 268° |
| 2026-05-04 22:27 | 45.65365 | 9.28130 | 13264 ft | 306 kts | 268° |
| 2026-05-04 22:27 | 45.65380 | 9.25673 | 12903 ft | 304 kts | 268° |
| 2026-05-04 22:28 | 45.65725 | 9.22669 | 12531 ft | 308 kts | 289° |
| 2026-05-04 22:28 | 45.66651 | 9.19906 | 12285 ft | 303 kts | 283° |
| 2026-05-04 22:28 | 45.66714 | 9.16991 | 11955 ft | 292 kts | 253° |
| 2026-05-04 22:28 | 45.66134 | 9.14271 | 11654 ft | 289 kts | 252° |
| 2026-05-04 22:29 | 45.65758 | 9.11447 | 11318 ft | 289 kts | 261° |
| 2026-05-04 22:29 | 45.65595 | 9.08600 | 11004 ft | 288 kts | 263° |
| 2026-05-04 22:29 | 45.65513 | 9.05734 | 10691 ft | 287 kts | 265° |
| 2026-05-04 22:29 | 45.65488 | 9.02960 | 10382 ft | 285 kts | 266° |
| 2026-05-04 22:30 | 45.65486 | 9.00177 | 10226 ft | 277 kts | 266° |
| 2026-05-04 22:30 | 45.65212 | 8.97494 | 10092 ft | 272 kts | 245° |
| 2026-05-04 22:30 | 45.64389 | 8.95043 | 9811 ft | 276 kts | 240° |
| 2026-05-04 22:30 | 45.63510 | 8.92596 | 9492 ft | 276 kts | 240° |
| 2026-05-04 22:31 | 45.62485 | 8.90343 | 9246 ft | 268 kts | 222° |
| 2026-05-04 22:31 | 45.60974 | 8.88944 | 8924 ft | 258 kts | 199° |
| 2026-05-04 22:31 | 45.59223 | 8.88466 | 8361 ft | 260 kts | 178° |
| 2026-05-04 22:31 | 45.57421 | 8.88835 | 7995 ft | 262 kts | 169° |
| 2026-05-04 22:32 | 45.55668 | 8.89325 | 7922 ft | 252 kts | 169° |
| 2026-05-04 22:32 | 45.54005 | 8.89790 | 7692 ft | 249 kts | 169° |
| 2026-05-04 22:32 | 45.52308 | 8.90257 | 7394 ft | 250 kts | 169° |
| 2026-05-04 22:32 | 45.50608 | 8.90721 | 7106 ft | 250 kts | 169° |
| 2026-05-04 22:33 | 45.48901 | 8.91187 | 6803 ft | 250 kts | 169° |
| 2026-05-04 22:33 | 45.47190 | 8.91654 | 6535 ft | 250 kts | 169° |
| 2026-05-04 22:33 | 45.45480 | 8.92120 | 6253 ft | 249 kts | 169° |
| 2026-05-04 22:33 | 45.43782 | 8.92582 | 5980 ft | 248 kts | 169° |
| 2026-05-04 22:34 | 45.42091 | 8.93041 | 5743 ft | 245 kts | 169° |
| 2026-05-04 22:34 | 45.40427 | 8.93492 | 5530 ft | 243 kts | 169° |
| 2026-05-04 22:34 | 45.38810 | 8.93931 | 5270 ft | 237 kts | 169° |
| 2026-05-04 22:34 | 45.37190 | 8.94370 | 5022 ft | 236 kts | 169° |
| 2026-05-04 22:35 | 45.35579 | 8.94807 | 4775 ft | 235 kts | 169° |
| 2026-05-04 22:35 | 45.33973 | 8.95242 | 4517 ft | 234 kts | 169° |
| 2026-05-04 22:35 | 45.32368 | 8.95570 | 4244 ft | 233 kts | 184° |
| 2026-05-04 22:35 | 45.30823 | 8.94939 | 4096 ft | 231 kts | 200° |
| 2026-05-04 22:36 | 45.29311 | 8.94136 | 4033 ft | 232 kts | 207° |
| 2026-05-04 22:36 | 45.28041 | 8.92802 | 4021 ft | 224 kts | 219° |
| 2026-05-04 22:36 | 45.26829 | 8.91394 | 4021 ft | 228 kts | 218° |
| 2026-05-04 22:36 | 45.26005 | 8.90463 | 4016 ft | 229 kts | 218° |
| 2026-05-04 22:37 | 45.24881 | 8.88910 | 3983 ft | 224 kts | 239° |
| 2026-05-04 22:37 | 45.24453 | 8.86831 | 4003 ft | 221 kts | 270° |
| 2026-05-04 22:37 | 45.24841 | 8.84741 | 3998 ft | 222 kts | 301° |
| 2026-05-04 22:37 | 45.25933 | 8.83223 | 4015 ft | 222 kts | 332° |
| 2026-05-04 22:38 | 45.27401 | 8.82516 | 4025 ft | 225 kts | 347° |
| 2026-05-04 22:38 | 45.28958 | 8.82085 | 4022 ft | 229 kts | 350° |
| 2026-05-04 22:38 | 45.30534 | 8.81698 | 4007 ft | 229 kts | 352° |
| 2026-05-04 22:38 | 45.32097 | 8.81891 | 4008 ft | 226 kts | 23° |
| 2026-05-04 22:39 | 45.33495 | 8.82876 | 3999 ft | 225 kts | 16° |
| 2026-05-04 22:39 | 45.35027 | 8.82903 | 4018 ft | 222 kts | 341° |
| 2026-05-04 22:39 | 45.36306 | 8.81717 | 4022 ft | 223 kts | 307° |
| 2026-05-04 22:39 | 45.36917 | 8.79717 | 3987 ft | 226 kts | 275° |
| 2026-05-04 22:40 | 45.36678 | 8.77502 | 3737 ft | 230 kts | 242° |
| 2026-05-04 22:40 | 45.35657 | 8.75847 | 3499 ft | 226 kts | 212° |
| 2026-05-04 22:40 | 45.34262 | 8.74877 | 3275 ft | 223 kts | 197° |
| 2026-05-04 22:40 | 45.32748 | 8.74581 | 3095 ft | 217 kts | 180° |
| 2026-05-04 22:41 | 45.31261 | 8.74819 | 3030 ft | 215 kts | 167° |
| 2026-05-04 22:41 | 45.29855 | 8.75534 | 3017 ft | 215 kts | 154° |
| 2026-05-04 22:41 | 45.28592 | 8.76691 | 3009 ft | 218 kts | 141° |
| 2026-05-04 22:41 | 45.27535 | 8.78236 | 3005 ft | 219 kts | 128° |
| 2026-05-04 22:42 | 45.26747 | 8.80081 | 3008 ft | 219 kts | 115° |
| 2026-05-04 22:42 | 45.26268 | 8.82137 | 3003 ft | 220 kts | 102° |
| 2026-05-04 22:42 | 45.26124 | 8.84307 | 3002 ft | 221 kts | 89° |
| 2026-05-04 22:42 | 45.26626 | 8.86333 | 2999 ft | 222 kts | 48° |
| 2026-05-04 22:43 | 45.27949 | 8.87369 | 3007 ft | 221 kts | 6° |
| 2026-05-04 22:43 | 45.29409 | 8.86890 | 3012 ft | 219 kts | 323° |
| 2026-05-04 22:43 | 45.30424 | 8.85385 | 3008 ft | 209 kts | 310° |
| 2026-05-04 22:43 | 45.31408 | 8.83923 | 2994 ft | 201 kts | 316° |
| 2026-05-04 22:44 | 45.32494 | 8.82687 | 3005 ft | 201 kts | 326° |
| 2026-05-04 22:44 | 45.33737 | 8.81753 | 3019 ft | 203 kts | 337° |
| 2026-05-04 22:44 | 45.35101 | 8.81158 | 3016 ft | 205 kts | 346° |
| 2026-05-04 22:44 | 45.36497 | 8.80717 | 3022 ft | 207 kts | 348° |
| 2026-05-04 22:45 | 45.37913 | 8.80313 | 3009 ft | 208 kts | 348° |
| 2026-05-04 22:45 | 45.40741 | 8.79528 | 3009 ft | 204 kts | 348° |
| 2026-05-04 22:45 | 45.42017 | 8.79174 | 3025 ft | 201 kts | 348° |
| 2026-05-04 22:46 | 45.43354 | 8.78804 | 3000 ft | 188 kts | 348° |
| 2026-05-04 22:46 | 45.44571 | 8.78467 | 2979 ft | 174 kts | 348° |
| 2026-05-04 22:46 | 45.45764 | 8.78135 | 3010 ft | 174 kts | 348° |
| 2026-05-04 22:46 | 45.46948 | 8.77807 | 3003 ft | 172 kts | 348° |
| 2026-05-04 22:47 | 45.48120 | 8.77481 | 3010 ft | 171 kts | 348° |
| 2026-05-04 22:47 | 45.49288 | 8.77157 | 3019 ft | 171 kts | 348° |
| 2026-05-04 22:47 | 45.50471 | 8.76829 | 2905 ft | 176 kts | 348° |
| 2026-05-04 22:47 | 45.51675 | 8.76495 | 2680 ft | 174 kts | 348° |
| 2026-05-04 22:48 | 45.52796 | 8.76185 | 2467 ft | 168 kts | 348° |
| 2026-05-04 22:48 | 45.53991 | 8.75853 | 2231 ft | 169 kts | 347° |
| 2026-05-04 22:48 | 45.55115 | 8.75542 | 2000 ft | 161 kts | 347° |
| 2026-05-04 22:48 | 45.56158 | 8.75253 | 1797 ft | 150 kts | 347° |
| 2026-05-04 22:49 | 45.57170 | 8.74972 | 1605 ft | 147 kts | 347° |
| 2026-05-04 22:49 | 45.58169 | 8.74701 | 1429 ft | 145 kts | 347° |
| 2026-05-04 22:49 | 45.59134 | 8.74434 | 1254 ft | 143 kts | 348° |
| 2026-05-04 22:49 | 45.60099 | 8.74171 | 1055 ft | 142 kts | 348° |
| 2026-05-04 22:50 | 45.61068 | 8.73899 | 873 ft | 140 kts | 348° |
| 2026-05-04 22:50 | 45.62015 | 8.73638 | 754 ft | 134 kts | 348° |
| 2026-05-04 22:50 | 45.62787 | 8.73415 | 757 ft | 94 kts | 349° |
| 2026-05-04 22:50 | 45.63270 | 8.73281 | 755 ft | 57 kts | 348° |
| 2026-05-04 22:51 | 45.63580 | 8.73190 | 758 ft | 27 kts | 336° |
| 2026-05-04 22:51 | 45.63704 | 8.73082 | 759 ft | 20 kts | 324° |
| 2026-05-04 22:51 | 45.63772 | 8.72996 | 759 ft | 7 kts | 315° |
| 2026-05-04 22:51 | 45.63805 | 8.72942 | 756 ft | 1 kts | 307° |
| 2026-05-04 22:52 | 45.63821 | 8.72906 | 755 ft | 8 kts | 303° |
| 2026-05-04 22:53 | 45.63864 | 8.72832 | 755 ft | 11 kts | 319° |
| 2026-05-04 22:53 | 45.63935 | 8.72790 | 757 ft | 11 kts | 345° |
| 2026-05-04 22:53 | 45.64016 | 8.72765 | 758 ft | 13 kts | 348° |
| 2026-05-04 22:53 | 45.64108 | 8.72740 | 757 ft | 14 kts | 349° |
| 2026-05-04 22:54 | 45.64211 | 8.72711 | 757 ft | 16 kts | 349° |
| 2026-05-04 22:54 | 45.64326 | 8.72680 | 753 ft | 18 kts | 349° |
| 2026-05-04 22:54 | 45.64457 | 8.72661 | 754 ft | 19 kts | 350° |
| 2026-05-04 22:54 | 45.64568 | 8.72631 | 756 ft | 15 kts | 349° |
| 2026-05-04 22:55 | 45.64665 | 8.72604 | 755 ft | 13 kts | 349° |
| 2026-05-04 22:55 | 45.64724 | 8.72588 | 757 ft | 7 kts | 349° |
| 2026-05-04 22:55 | 45.64772 | 8.72575 | 757 ft | 7 kts | 346° |
| 2026-05-04 22:55 | 45.64788 | 8.72524 | 755 ft | 6 kts | 267° |
| 2026-05-04 22:56 | 45.64784 | 8.72479 | 755 ft | 0 kts | 259° |
| 2026-05-04 22:56 | 45.64783 | 8.72473 | 755 ft | 2 kts | 259° |
| 2026-05-04 22:56 | 45.64782 | 8.72463 | 755 ft | 0 kts | 259° |